Weather at Anaktuvuk Pass Airport

Public forecast

Using degrees Fahrenheit for public forecast. Weather courtesy of forecast.io.

Current aviation weather report (METAR) for Anaktuvuk Pass Airport

Report is more than 6 hours old.

2022/11/14 14:56 (retrieved 2 years ago)

PAKP 141456Z AUTO 06016KT 4SM -SN BR FEW025 BKN039 OVC060 M15/M17 A2987 RMK AO2 SLP184 P0000 60000 T11501172 51022 FZRANO

Closest aviation forecast (TAF) to Anaktuvuk Pass Airport

Forecast is more than 12 hours old.

Closest forecast is Bettles Airport, 73.4 nm (135.9 km) S.

2023/02/22 18:40 (retrieved 1 year ago)

TAF PABT 221738Z 2218/2318 VRB04KT 6SM -SN BR BKN035 OVC050 FM230000 09008KT 6SM -SN BR OVC025 FM230600 09015G25KT 1SM -SN BLSN BR SCT007 BKN015 OVC025